PDT,Max TemperatureF,Mean TemperatureF,Min TemperatureF,Max Dew PointF,MeanDew PointF,Min DewpointF,Max Humidity, Mean Humidity, Min Humidity, Max Sea Level PressureIn, Mean Sea Level PressureIn, Min Sea Level PressureIn, Max VisibilityMiles, Mean VisibilityMiles, Min VisibilityMiles, Max Wind SpeedMPH, Mean Wind SpeedMPH, Max Gust SpeedMPH,PrecipitationIn, CloudCover, Events, WindDirDegrees
2012-7-1,69,62,54,57,54,51,90,76,61,30.09,30.04,29.99,10,9,2,10,4,23,0.05,7,Rain,207
2012-7-2,71,62,53,54,50,48,89,70,51,30.02,29.99,29.92,10,10,10,20,7,28,T,7,Rain,234
2012-7-3,68,60,51,52,48,44,93,69,45,30.17,30.09,29.98,10,9,4,15,9,20,0.03,5,Rain,244
2012-7-4,75,60,45,54,47,42,92,65,38,30.12,30.03,29.94,10,10,10,9,4,15,0.00,0,,274
2012-7-5,82,66,49,57,51,46,89,63,36,30.03,29.99,29.94,10,10,10,14,4,19,0.00,0,,247
2012-7-6,84,68,51,59,53,48,89,64,39,30.10,30.06,30.03,10,10,10,15,5,18,0.00,0,,237
2012-7-7,90,71,52,63,55,49,93,61,29,30.13,30.05,29.97,10,10,10,13,5,28,0.00,0,,269
2012-7-8,89,73,56,63,56,53,93,65,36,30.06,30.00,29.94,10,10,10,18,6,23,0.00,0,,257
2012-7-9,84,69,54,58,54,50,89,66,42,30.12,30.06,30.02,10,10,10,18,7,22,0.00,0,,232
2012-7-10,87,69,50,57,52,48,89,60,30,30.20,30.11,30.00,10,10,8,17,3,25,0.00,0,,309
2012-7-11,90,72,54,62,56,51,90,62,35,30.07,30.01,29.94,10,10,10,16,4,24,0.00,0,,269
2012-7-12,83,70,56,57,54,51,86,60,34,30.02,29.98,29.95,10,10,10,15,8,22,0.00,0,,231
2012-7-13,84,68,51,59,53,48,89,66,42,30.07,30.00,29.92,10,10,10,14,4,16,0.00,0,,251
2012-7-14,84,71,57,60,56,53,86,60,34,30.00,29.96,29.91,10,10,10,20,8,30,0.00,1,,221
2012-7-15,72,65,57,55,53,50,87,68,49,30.02,29.99,29.94,10,10,10,20,9,24,0.00,5,,235
2012-7-16,81,69,56,56,52,49,86,60,33,29.94,29.86,29.77,10,10,10,14,4,28,0.00,4,,290
2012-7-17,79,69,58,62,57,54,87,73,58,29.98,29.88,29.82,10,10,10,20,7,24,0.01,2,,236
2012-7-18,72,66,60,58,55,54,84,71,57,30.05,30.02,29.98,10,10,10,14,5,17,0.00,8,,210
2012-7-19,83,72,61,60,57,55,84,65,45,30.04,29.98,29.91,10,10,2,16,3,20,T,5,,220
2012-7-20,72,65,58,56,54,53,86,70,53,30.23,30.14,30.00,10,10,10,16,7,21,T,6,Rain,223
2012-7-21,82,69,55,58,54,50,93,65,36,30.21,30.15,30.06,10,10,10,15,6,17,0.00,4,,245
2012-7-22,71,62,52,54,49,45,80,63,45,30.21,30.13,30.09,10,10,10,17,6,29,0.00,5,,246
2012-7-23,74,60,45,50,47,42,93,69,44,30.28,30.21,30.13,10,10,10,20,7,24,0.00,1,,1
2012-7-24,85,67,49,60,52,46,93,64,34,30.13,30.04,29.93,10,10,10,16,5,22,0.00,2,,347
2012-7-25,87,71,54,61,55,51,93,64,35,30.02,29.96,29.89,10,10,10,17,5,21,0.00,0,,238
2012-7-26,82,68,54,58,54,51,86,65,43,30.01,29.96,29.90,10,10,10,21,7,25,0.00,0,,226
2012-7-27,76,66,56,56,53,51,86,68,50,30.11,30.06,29.99,10,10,10,10,3,13,0.00,6,,177
2012-7-28,82,69,55,56,54,52,87,63,39,30.16,30.13,30.07,10,10,10,15,3,17,0.00,3,,253
2012-7-29,80,69,57,56,54,53,86,65,43,30.19,30.15,30.08,10,10,10,14,4,15,0.00,5,,232
2012-7-30,78,67,55,55,53,52,86,66,46,30.19,30.16,30.11,10,10,10,13,4,35,0.00,6,,325
2012-7-31,81,68,55,54,51,48,83,59,35,30.17,30.14,30.10,10,10,10,13,4,18,0.00,3,,336